Buoy 46762

sailwx.info

Track history (hours):
 
Tides and Currents Weather Stations Pressure Air Temp Water Temp Dewpoint Dewpoint Depression Visibility Wind Speed Wind Dir Waves Ship Positions

Drifting buoy 46762

Last reported at 2015-Mar-01 02:00 UTC. Time now 2015-Mar-01 04:28 UTC.
Position N 57°21' W 145°01'.

Barometer 1024.4 mb
Water temperature 6.2 ° C

Date/timePositionNaut miles runAvg speedWind from/ knotsBaromVisibWave heightAir tempDewpointWater temp
2015-Mar-01 02:00N 57°21' W 145°01'0 0.0 1024.4 6.2
2015-Mar-01 01:00N 57°21' W 145°01'1 0.9 1024.8 6.2
2015-Mar-01 00:00N 57°20' W 144°60'2 1.6 1025.2 6.2
2015-Feb-28 23:00N 57°22' W 144°58'0 0.0 1025.8 6.2
2015-Feb-28 22:00N 57°22' W 144°58'3 3.1 1025.9 6.2
2015-Feb-28 21:00N 57°23' W 145°02'0 0.0 1026.0 6.2
2015-Feb-28 20:00N 57°23' W 145°02'1 1.5 1026.1 6.2
2015-Feb-28 19:00N 57°24' W 145°05'0 0.0 1026.2 6.2
2015-Feb-28 18:00N 57°24' W 145°05'0 0.0 1026.3 6.2
2015-Feb-28 17:00N 57°24' W 145°05'2 1.9 1026.6 6.2
2015-Feb-28 16:00N 57°22' W 145°05'0 0.0 1027.3 6.2
2015-Feb-28 15:00N 57°22' W 145°05'0 0.0 1027.8 6.2
2015-Feb-28 14:00N 57°22' W 145°05'1 0.6 1028.4 6.2
2015-Feb-28 13:00N 57°21' W 145°05'3 1.6 1029.0 6.2
2015-Feb-28 11:00N 57°24' W 145°03'0 0.0 1029.8 6.2
2015-Feb-28 09:00N 57°24' W 145°03'0 0.0 1030.3 6.2
2015-Feb-28 08:00N 57°24' W 145°03'0 0.0 1030.7 6.2
2015-Feb-28 07:00N 57°24' W 145°03'1 0.7 1030.8 6.2
2015-Feb-28 06:00N 57°25' W 145°02'0 0.0 1030.9 6.2
2015-Feb-28 05:00N 57°25' W 145°02'3 2.7 1031.0 6.2
2015-Feb-28 04:00N 57°25' W 145°07'0 0.0 1031.3 6.2
2015-Feb-28 01:00N 57°25' W 145°07'2 1.0 1032.1 6.3
2015-Feb-27 23:00N 57°23' W 145°05'4 1.4 1032.6 6.2
2015-Feb-27 20:00N 57°28' W 145°03'1 0.3 1032.4 6.2
2015-Feb-27 18:00N 57°28' W 145°04'0 0.0 1032.1 6.2
2015-Feb-27 17:00N 57°28' W 145°04'1 1.0 1031.7 6.2
2015-Feb-27 16:00N 57°28' W 145°06'1 1.5 1031.7 6.2
2015-Feb-27 15:00N 57°29' W 145°08'1 0.6 1031.9 6.2
2015-Feb-27 13:00N 57°28' W 145°06'0 0.0 1032.2 6.2
2015-Feb-27 12:00N 57°28' W 145°06'1 1.3 1032.5 6.2
2015-Feb-27 11:00N 57°29' W 145°05'0 0.0 1032.3 6.2
2015-Feb-27 08:00N 57°29' W 145°05'1 0.9 1032.5 6.2
2015-Feb-27 07:00N 57°30' W 145°04'3 2.7 1032.2 6.2
2015-Feb-27 06:00N 57°32' W 145°07'0 0.0 1031.9 6.2
2015-Feb-27 05:00N 57°32' W 145°07'0 0.0 1032.1 6.2
2015-Feb-27 04:00N 57°32' W 145°07'2 2.0 1032.2 6.2
2015-Feb-27 03:00N 57°34' W 145°09'3 3.1 1032.1 6.2
2015-Feb-27 02:00N 57°31' W 145°12'1 1.2 1032.3 6.2
2015-Feb-27 01:00N 57°32' W 145°12'0 0.0 1032.4 6.3
2015-Feb-27 00:00N 57°32' W 145°12'1 0.3 1032.6 6.3
2015-Feb-26 21:00N 57°32' W 145°10'1 1.3 1032.5 6.2
2015-Feb-26 20:00N 57°33' W 145°11'0 0.1 1032.4 6.2
2015-Feb-26 17:00N 57°33' W 145°10'1 0.7 1030.9 6.2
2015-Feb-26 16:00N 57°34' W 145°09'1 0.7 1030.5 6.2
2015-Feb-26 15:00N 57°34' W 145°11'1 0.4 1029.8 6.2
2015-Feb-26 12:00N 57°34' W 145°13'1 0.8 1028.8 6.2
2015-Feb-26 11:00N 57°34' W 145°11'1 1.0 1028.7 6.2
2015-Feb-26 10:00N 57°34' W 145°10'0 0.0 1028.0 6.2
2015-Feb-26 09:00N 57°34' W 145°10'1 0.3 1027.3 6.2
2015-Feb-26 06:00N 57°35' W 145°09'1 0.8 1025.4 6.2
2015-Feb-26 05:00N 57°35' W 145°10'0 0.2 1024.7 6.2
2015-Feb-26 04:00N 57°35' W 145°10'0 0.0 1024.1 6.2
2015-Feb-26 03:00N 57°35' W 145°10'1 1.2 1023.3 6.2
2015-Feb-26 02:00N 57°36' W 145°11'0 0.5 1022.9 6.2
2015-Feb-26 01:00N 57°36' W 145°10'0 0.0 1022.2 6.2
2015-Feb-26 00:00N 57°36' W 145°10'1 1.4 1021.5 6.2
2015-Feb-25 23:00N 57°34' W 145°09'1 1.3 1021.2 6.2
2015-Feb-25 22:00N 57°35' W 145°07'2 2.1 1021.1 6.2
2015-Feb-25 21:00N 57°35' W 145°03'3 3.3 1020.9 6.2
2015-Feb-25 20:00N 57°38' W 145°06'0 0.0 1020.6 6.2
2015-Feb-25 18:00N 57°38' W 145°06'0 0.0 1020.2 6.2
2015-Feb-25 17:00N 57°38' W 145°06'0 0.5 1020.0 6.2
2015-Feb-25 16:00N 57°38' W 145°06'1 1.4 1019.7 6.2
2015-Feb-25 15:00N 57°38' W 145°09'3 1.3 1019.7 6.2
2015-Feb-25 13:00N 57°36' W 145°07'2 1.6 1020.4 6.2
2015-Feb-25 12:00N 57°37' W 145°04'0 0.0 1020.9 6.2
2015-Feb-25 11:00N 57°37' W 145°04'0 0.0 1021.4 6.2
2015-Feb-25 10:00N 57°37' W 145°04'3 0.8 1021.9 6.2
2015-Feb-25 06:00N 57°40' W 145°01'0 0.0 1023.4 6.2
2015-Feb-25 05:00N 57°40' W 145°01'2 1.7 1023.5 6.2
2015-Feb-25 04:00N 57°40' W 145°04'1 1.5 1023.8 6.2
2015-Feb-25 03:00N 57°40' W 145°06'1 0.9 1024.3 6.2
2015-Feb-25 02:00N 57°40' W 145°08'0 0.0 1024.9 6.2
2015-Feb-25 01:00N 57°40' W 145°08'1 1.0 1025.6 6.2
2015-Feb-25 00:00N 57°39' W 145°10'1 1.4 1026.2 6.2
2015-Feb-24 23:00N 57°39' W 145°07'1 1.4 1026.9 6.2
2015-Feb-24 22:00N 57°40' W 145°05'0 0.0 1027.7 6.2
2015-Feb-24 21:00N 57°40' W 145°05'2 2.0 1028.2 6.2
2015-Feb-24 20:00N 57°39' W 145°01'1 1.4 1028.4 6.2
2015-Feb-24 19:00N 57°40' W 145°01'0 0.0 1028.6 6.2
2015-Feb-24 18:00N 57°40' W 145°01'3 3.1 1028.5 6.2
2015-Feb-24 17:00N 57°43' W 145°04'1 1.0 1028.6 6.2
2015-Feb-24 16:00N 57°44' W 145°02'1 0.8 1029.0 6.2
2015-Feb-24 15:00N 57°44' W 145°03'2 2.0 1029.0 6.2
2015-Feb-24 14:00N 57°44' W 145°07'0 0.0 1029.0 6.2
2015-Feb-24 13:00N 57°44' W 145°07'0 0.0 1029.1 6.2
2015-Feb-24 12:00N 57°44' W 145°07'0 0.2 1029.1 6.2
2015-Feb-24 10:00N 57°44' W 145°07'1 1.3 1028.3 6.2
2015-Feb-24 09:00N 57°44' W 145°05'0 0.0 1028.0 6.2
2015-Feb-24 08:00N 57°44' W 145°05'0 0.0 1028.1 6.2
2015-Feb-24 07:00N 57°44' W 145°05'1 1.4 1027.9 6.2
2015-Feb-24 06:00N 57°45' W 145°03'0 0.5 1027.6 6.3
2015-Feb-24 05:00N 57°45' W 145°03'2 1.2 1027.2 6.3
2015-Feb-24 03:00N 57°47' W 145°05'1 0.5 1025.5 6.3
2015-Feb-24 02:00N 57°48' W 145°05'2 2.4 1025.0 6.4
2015-Feb-24 01:00N 57°49' W 145°09'0 0.0 1024.4 6.4
2015-Feb-24 00:00N 57°49' W 145°09'1 0.7 1024.2 6.4
2015-Feb-23 23:00N 57°49' W 145°09'0 0.0 1023.9 6.4
2015-Feb-23 22:00N 57°49' W 145°09'0 0.0 1023.6 6.3
2015-Feb-23 21:00N 57°49' W 145°09'0 0.0 1023.2 6.3
2015-Feb-23 20:00N 57°49' W 145°09'2 2.1 1022.9 6.3
2015-Feb-23 19:00N 57°50' W 145°05'0 0.0 1022.4 6.3
2015-Feb-23 18:00N 57°50' W 145°05'2 1.5 1022.1 6.3
2015-Feb-23 17:00N 57°51' W 145°06'0 0.0 1021.3 6.3
2015-Feb-23 16:00N 57°51' W 145°06'1 0.7 1020.9 6.3
2015-Feb-23 15:00N 57°52' W 145°06'0 0.5 1020.1 6.3
2015-Feb-23 14:00N 57°52' W 145°06'0 0.2 1019.6 6.3
2015-Feb-23 13:00N 57°52' W 145°05'3 3.3 1018.9 6.3
2015-Feb-23 12:00N 57°55' W 145°08'0 0.0 1018.2 6.3
2015-Feb-23 10:00N 57°55' W 145°08'0 0.0 1017.1 6.4
2015-Feb-23 09:00N 57°55' W 145°08'0 0.0 1015.7 6.3
2015-Feb-23 08:00N 57°55' W 145°08'1 1.1 1015.2 6.4
2015-Feb-23 07:00N 57°56' W 145°09'1 1.1 1014.2 6.4
2015-Feb-23 06:00N 57°56' W 145°07'1 1.1 1012.8 6.4
2015-Feb-23 05:00N 57°57' W 145°09'1 0.9 1011.5 6.4
2015-Feb-23 04:00N 57°56' W 145°08'1 1.2 1011.6 6.4
2015-Feb-23 03:00N 57°57' W 145°06'1 1.4 1012.4 6.4
2015-Feb-23 02:00N 57°57' W 145°09'0 0.2 1013.0 6.4
2015-Feb-23 01:00N 57°57' W 145°08'2 1.7 1013.7 6.4
2015-Feb-23 00:00N 57°59' W 145°06'2 1.5 1015.3 6.4
2015-Feb-22 23:00N 57°60' W 145°05'0 0.3 1016.0 6.4
2015-Feb-22 22:00N 58°00' W 145°05'0 0.0 1016.9 6.4
2015-Feb-22 21:00N 58°00' W 145°05'2 2.5 1018.0 6.4
2015-Feb-22 20:00N 58°02' W 145°07'2 2.4 1018.2 6.3
2015-Feb-22 19:00N 58°01' W 145°04'3 1.3 1018.4 6.3
2015-Feb-22 17:00N 58°03' W 145°07'0 0.0 1018.6 6.2
2015-Feb-22 16:00N 58°03' W 145°07'1 0.7 1018.7 6.2
2015-Feb-22 15:00N 58°03' W 145°07'1 1.4 1018.2 6.2
2015-Feb-22 14:00N 58°02' W 145°07'0 0.0 1018.2 6.2
2015-Feb-22 13:00N 58°02' W 145°07'5 1.3 1018.9 6.2
2015-Feb-22 09:00N 58°06' W 145°01'1 0.6 1018.4 6.2
2015-Feb-22 07:00N 58°07' W 145°02'0 0.0 1017.5 6.2
2015-Feb-22 06:00N 58°07' W 145°02'1 0.9 1016.5 6.2
2015-Feb-22 05:00N 58°08' W 145°03'1 0.8 1015.4 6.2
2015-Feb-22 04:00N 58°08' W 145°02'0 0.1 1014.4 6.2
2015-Feb-22 03:00N 58°08' W 145°02'3 3.3 1012.9 6.2
2015-Feb-22 02:00N 58°06' W 145°07'0 0.0 1012.2 6.2
2015-Feb-22 01:00N 58°06' W 145°07'3 3.0 1011.3 6.2
2015-Feb-22 00:00N 58°08' W 145°03'0 0.0 1011.0 6.1
2015-Feb-21 23:00N 58°08' W 145°03'1 0.3 1011.2 6.1
2015-Feb-21 21:00N 58°08' W 145°02'4 0.9 1012.7 6.1
2015-Feb-21 17:00N 58°11' W 145°01'0 0.0 1013.1 6.1
2015-Feb-21 16:00N 58°11' W 145°01'2 0.8 1012.9 6.1
2015-Feb-21 14:00N 58°12' W 145°04'0 0.1 1012.9 6.0
2015-Feb-21 11:00N 58°12' W 145°05'3 3.0 1013.2 6.0
2015-Feb-21 10:00N 58°11' W 144°59'0 0.0 1013.8 6.0
2015-Feb-21 05:00N 58°11' W 144°59'3 0.9 1016.7 6.0
2015-Feb-21 02:00N 58°13' W 144°56'1 0.5 1018.6 6.0
2015-Feb-21 00:00N 58°14' W 144°57'1 0.9 1020.0 6.0
2015-Feb-20 23:00N 58°13' W 144°55'1 0.7 1020.5 6.0
2015-Feb-20 21:00N 58°13' W 144°53'0 0.0 1022.2 6.0
2015-Feb-20 20:00N 58°13' W 144°53'3 2.6 1022.7 6.0
2015-Feb-20 19:00N 58°13' W 144°48'0 0.0 1022.3 6.0
2015-Feb-20 17:00N 58°13' W 144°48'1 1.3 1022.7 6.0
2015-Feb-20 16:00N 58°14' W 144°50'2 0.5 1023.1 6.0
2015-Feb-20 13:00N 58°15' W 144°50'1 1.1 1022.9 6.0
2015-Feb-20 12:00N 58°15' W 144°47'1 0.2 1023.1 6.0
2015-Feb-20 07:00N 58°16' W 144°48'1 0.2 1023.1 6.0
2015-Feb-20 04:00N 58°16' W 144°47'1 0.6 1022.6 6.0
2015-Feb-20 02:00N 58°16' W 144°45'0 0.0 1021.8 6.0
2015-Feb-20 01:00N 58°16' W 144°45'3 1.3 1021.4 6.0
2015-Feb-19 23:00N 58°19' W 144°44'1 0.6 1021.0 6.0
2015-Feb-19 21:00N 58°20' W 144°45'1 0.4 1020.0 6.0
2015-Feb-19 18:00N 58°20' W 144°47'0 0.0 1017.7 6.0
2015-Feb-19 17:00N 58°20' W 144°47'0 0.3 1017.1 6.0
2015-Feb-19 16:00N 58°20' W 144°48'1 1.5 1016.6 6.0
2015-Feb-19 15:00N 58°19' W 144°46'2 1.7 1016.1 6.0
2015-Feb-19 14:00N 58°20' W 144°43'1 0.7 1015.5 6.0
2015-Feb-19 13:00N 58°20' W 144°43'3 0.3 1014.8 6.0
2015-Feb-19 04:00N 58°23' W 144°46'0 0.0 1009.1 6.0
2015-Feb-19 03:00N 58°23' W 144°46'1 0.8 1008.2 6.0
2015-Feb-19 02:00N 58°22' W 144°45'   1007.7 6.0
Track history (hours):
 
Tides and Currents Weather Stations Pressure Air Temp Water Temp Dewpoint Dewpoint Depression Visibility Wind Speed Wind Dir Waves Ship Positions

Drifting buoy 46762

Last reported at 2015-Mar-01 02:00 UTC. Time now 2015-Mar-01 04:28 UTC.
Position N 57°21' W 145°01'.

Barometer 1024.4 mb
Water temperature 6.2 ° C

Date/timePositionNaut miles runAvg speedWind from/ knotsBaromVisibWave heightAir tempDewpointWater temp
2015-Mar-01 02:00N 57°21' W 145°01'0 0.0 1024.4 6.2
2015-Mar-01 01:00N 57°21' W 145°01'1 0.9 1024.8 6.2
2015-Mar-01 00:00N 57°20' W 144°60'2 1.6 1025.2 6.2
2015-Feb-28 23:00N 57°22' W 144°58'0 0.0 1025.8 6.2
2015-Feb-28 22:00N 57°22' W 144°58'3 3.1 1025.9 6.2
2015-Feb-28 21:00N 57°23' W 145°02'0 0.0 1026.0 6.2
2015-Feb-28 20:00N 57°23' W 145°02'1 1.5 1026.1 6.2
2015-Feb-28 19:00N 57°24' W 145°05'0 0.0 1026.2 6.2
2015-Feb-28 18:00N 57°24' W 145°05'0 0.0 1026.3 6.2
2015-Feb-28 17:00N 57°24' W 145°05'2 1.9 1026.6 6.2
2015-Feb-28 16:00N 57°22' W 145°05'0 0.0 1027.3 6.2
2015-Feb-28 15:00N 57°22' W 145°05'0 0.0 1027.8 6.2
2015-Feb-28 14:00N 57°22' W 145°05'1 0.6 1028.4 6.2
2015-Feb-28 13:00N 57°21' W 145°05'3 1.6 1029.0 6.2
2015-Feb-28 11:00N 57°24' W 145°03'0 0.0 1029.8 6.2
2015-Feb-28 09:00N 57°24' W 145°03'0 0.0 1030.3 6.2
2015-Feb-28 08:00N 57°24' W 145°03'0 0.0 1030.7 6.2
2015-Feb-28 07:00N 57°24' W 145°03'1 0.7 1030.8 6.2
2015-Feb-28 06:00N 57°25' W 145°02'0 0.0 1030.9 6.2
2015-Feb-28 05:00N 57°25' W 145°02'3 2.7 1031.0 6.2
2015-Feb-28 04:00N 57°25' W 145°07'0 0.0 1031.3 6.2
2015-Feb-28 01:00N 57°25' W 145°07'2 1.0 1032.1 6.3
2015-Feb-27 23:00N 57°23' W 145°05'4 1.4 1032.6 6.2
2015-Feb-27 20:00N 57°28' W 145°03'1 0.3 1032.4 6.2
2015-Feb-27 18:00N 57°28' W 145°04'0 0.0 1032.1 6.2
2015-Feb-27 17:00N 57°28' W 145°04'1 1.0 1031.7 6.2
2015-Feb-27 16:00N 57°28' W 145°06'1 1.5 1031.7 6.2
2015-Feb-27 15:00N 57°29' W 145°08'1 0.6 1031.9 6.2
2015-Feb-27 13:00N 57°28' W 145°06'0 0.0 1032.2 6.2
2015-Feb-27 12:00N 57°28' W 145°06'1 1.3 1032.5 6.2
2015-Feb-27 11:00N 57°29' W 145°05'0 0.0 1032.3 6.2
2015-Feb-27 08:00N 57°29' W 145°05'1 0.9 1032.5 6.2
2015-Feb-27 07:00N 57°30' W 145°04'3 2.7 1032.2 6.2
2015-Feb-27 06:00N 57°32' W 145°07'0 0.0 1031.9 6.2
2015-Feb-27 05:00N 57°32' W 145°07'0 0.0 1032.1 6.2
2015-Feb-27 04:00N 57°32' W 145°07'2 2.0 1032.2 6.2
2015-Feb-27 03:00N 57°34' W 145°09'3 3.1 1032.1 6.2
2015-Feb-27 02:00N 57°31' W 145°12'1 1.2 1032.3 6.2
2015-Feb-27 01:00N 57°32' W 145°12'0 0.0 1032.4 6.3
2015-Feb-27 00:00N 57°32' W 145°12'1 0.3 1032.6 6.3
2015-Feb-26 21:00N 57°32' W 145°10'1 1.3 1032.5 6.2
2015-Feb-26 20:00N 57°33' W 145°11'0 0.1 1032.4 6.2
2015-Feb-26 17:00N 57°33' W 145°10'1 0.7 1030.9 6.2
2015-Feb-26 16:00N 57°34' W 145°09'1 0.7 1030.5 6.2
2015-Feb-26 15:00N 57°34' W 145°11'1 0.4 1029.8 6.2
2015-Feb-26 12:00N 57°34' W 145°13'1 0.8 1028.8 6.2
2015-Feb-26 11:00N 57°34' W 145°11'1 1.0 1028.7 6.2
2015-Feb-26 10:00N 57°34' W 145°10'0 0.0 1028.0 6.2
2015-Feb-26 09:00N 57°34' W 145°10'1 0.3 1027.3 6.2
2015-Feb-26 06:00N 57°35' W 145°09'1 0.8 1025.4 6.2
2015-Feb-26 05:00N 57°35' W 145°10'0 0.2 1024.7 6.2
2015-Feb-26 04:00N 57°35' W 145°10'0 0.0 1024.1 6.2
2015-Feb-26 03:00N 57°35' W 145°10'1 1.2 1023.3 6.2
2015-Feb-26 02:00N 57°36' W 145°11'0 0.5 1022.9 6.2
2015-Feb-26 01:00N 57°36' W 145°10'0 0.0 1022.2 6.2
2015-Feb-26 00:00N 57°36' W 145°10'1 1.4 1021.5 6.2
2015-Feb-25 23:00N 57°34' W 145°09'1 1.3 1021.2 6.2
2015-Feb-25 22:00N 57°35' W 145°07'2 2.1 1021.1 6.2
2015-Feb-25 21:00N 57°35' W 145°03'3 3.3 1020.9 6.2
2015-Feb-25 20:00N 57°38' W 145°06'0 0.0 1020.6 6.2
2015-Feb-25 18:00N 57°38' W 145°06'0 0.0 1020.2 6.2
2015-Feb-25 17:00N 57°38' W 145°06'0 0.5 1020.0 6.2
2015-Feb-25 16:00N 57°38' W 145°06'1 1.4 1019.7 6.2
2015-Feb-25 15:00N 57°38' W 145°09'3 1.3 1019.7 6.2
2015-Feb-25 13:00N 57°36' W 145°07'2 1.6 1020.4 6.2
2015-Feb-25 12:00N 57°37' W 145°04'0 0.0 1020.9 6.2
2015-Feb-25 11:00N 57°37' W 145°04'0 0.0 1021.4 6.2
2015-Feb-25 10:00N 57°37' W 145°04'3 0.8 1021.9 6.2
2015-Feb-25 06:00N 57°40' W 145°01'0 0.0 1023.4 6.2
2015-Feb-25 05:00N 57°40' W 145°01'2 1.7 1023.5 6.2
2015-Feb-25 04:00N 57°40' W 145°04'1 1.5 1023.8 6.2
2015-Feb-25 03:00N 57°40' W 145°06'1 0.9 1024.3 6.2
2015-Feb-25 02:00N 57°40' W 145°08'0 0.0 1024.9 6.2
2015-Feb-25 01:00N 57°40' W 145°08'1 1.0 1025.6 6.2
2015-Feb-25 00:00N 57°39' W 145°10'1 1.4 1026.2 6.2
2015-Feb-24 23:00N 57°39' W 145°07'1 1.4 1026.9 6.2
2015-Feb-24 22:00N 57°40' W 145°05'0 0.0 1027.7 6.2
2015-Feb-24 21:00N 57°40' W 145°05'2 2.0 1028.2 6.2
2015-Feb-24 20:00N 57°39' W 145°01'1 1.4 1028.4 6.2
2015-Feb-24 19:00N 57°40' W 145°01'0 0.0 1028.6 6.2
2015-Feb-24 18:00N 57°40' W 145°01'3 3.1 1028.5 6.2
2015-Feb-24 17:00N 57°43' W 145°04'1 1.0 1028.6 6.2
2015-Feb-24 16:00N 57°44' W 145°02'1 0.8 1029.0 6.2
2015-Feb-24 15:00N 57°44' W 145°03'2 2.0 1029.0 6.2
2015-Feb-24 14:00N 57°44' W 145°07'0 0.0 1029.0 6.2
2015-Feb-24 13:00N 57°44' W 145°07'0 0.0 1029.1 6.2
2015-Feb-24 12:00N 57°44' W 145°07'0 0.2 1029.1 6.2
2015-Feb-24 10:00N 57°44' W 145°07'1 1.3 1028.3 6.2
2015-Feb-24 09:00N 57°44' W 145°05'0 0.0 1028.0 6.2
2015-Feb-24 08:00N 57°44' W 145°05'0 0.0 1028.1 6.2
2015-Feb-24 07:00N 57°44' W 145°05'1 1.4 1027.9 6.2
2015-Feb-24 06:00N 57°45' W 145°03'0 0.5 1027.6 6.3
2015-Feb-24 05:00N 57°45' W 145°03'2 1.2 1027.2 6.3
2015-Feb-24 03:00N 57°47' W 145°05'1 0.5 1025.5 6.3
2015-Feb-24 02:00N 57°48' W 145°05'2 2.4 1025.0 6.4
2015-Feb-24 01:00N 57°49' W 145°09'0 0.0 1024.4 6.4
2015-Feb-24 00:00N 57°49' W 145°09'1 0.7 1024.2 6.4
2015-Feb-23 23:00N 57°49' W 145°09'0 0.0 1023.9 6.4
2015-Feb-23 22:00N 57°49' W 145°09'0 0.0 1023.6 6.3
2015-Feb-23 21:00N 57°49' W 145°09'0 0.0 1023.2 6.3
2015-Feb-23 20:00N 57°49' W 145°09'2 2.1 1022.9 6.3
2015-Feb-23 19:00N 57°50' W 145°05'0 0.0 1022.4 6.3
2015-Feb-23 18:00N 57°50' W 145°05'2 1.5 1022.1 6.3
2015-Feb-23 17:00N 57°51' W 145°06'0 0.0 1021.3 6.3
2015-Feb-23 16:00N 57°51' W 145°06'1 0.7 1020.9 6.3
2015-Feb-23 15:00N 57°52' W 145°06'0 0.5 1020.1 6.3
2015-Feb-23 14:00N 57°52' W 145°06'0 0.2 1019.6 6.3
2015-Feb-23 13:00N 57°52' W 145°05'3 3.3 1018.9 6.3
2015-Feb-23 12:00N 57°55' W 145°08'0 0.0 1018.2 6.3
2015-Feb-23 10:00N 57°55' W 145°08'0 0.0 1017.1 6.4
2015-Feb-23 09:00N 57°55' W 145°08'0 0.0 1015.7 6.3
2015-Feb-23 08:00N 57°55' W 145°08'1 1.1 1015.2 6.4
2015-Feb-23 07:00N 57°56' W 145°09'1 1.1 1014.2 6.4
2015-Feb-23 06:00N 57°56' W 145°07'1 1.1 1012.8 6.4
2015-Feb-23 05:00N 57°57' W 145°09'1 0.9 1011.5 6.4
2015-Feb-23 04:00N 57°56' W 145°08'1 1.2 1011.6 6.4
2015-Feb-23 03:00N 57°57' W 145°06'1 1.4 1012.4 6.4
2015-Feb-23 02:00N 57°57' W 145°09'0 0.2 1013.0 6.4
2015-Feb-23 01:00N 57°57' W 145°08'2 1.7 1013.7 6.4
2015-Feb-23 00:00N 57°59' W 145°06'2 1.5 1015.3 6.4
2015-Feb-22 23:00N 57°60' W 145°05'0 0.3 1016.0 6.4
2015-Feb-22 22:00N 58°00' W 145°05'0 0.0 1016.9 6.4
2015-Feb-22 21:00N 58°00' W 145°05'2 2.5 1018.0 6.4
2015-Feb-22 20:00N 58°02' W 145°07'2 2.4 1018.2 6.3
2015-Feb-22 19:00N 58°01' W 145°04'3 1.3 1018.4 6.3
2015-Feb-22 17:00N 58°03' W 145°07'0 0.0 1018.6 6.2
2015-Feb-22 16:00N 58°03' W 145°07'1 0.7 1018.7 6.2
2015-Feb-22 15:00N 58°03' W 145°07'1 1.4 1018.2 6.2
2015-Feb-22 14:00N 58°02' W 145°07'0 0.0 1018.2 6.2
2015-Feb-22 13:00N 58°02' W 145°07'5 1.3 1018.9 6.2
2015-Feb-22 09:00N 58°06' W 145°01'1 0.6 1018.4 6.2
2015-Feb-22 07:00N 58°07' W 145°02'0 0.0 1017.5 6.2
2015-Feb-22 06:00N 58°07' W 145°02'1 0.9 1016.5 6.2
2015-Feb-22 05:00N 58°08' W 145°03'1 0.8 1015.4 6.2
2015-Feb-22 04:00N 58°08' W 145°02'0 0.1 1014.4 6.2
2015-Feb-22 03:00N 58°08' W 145°02'3 3.3 1012.9 6.2
2015-Feb-22 02:00N 58°06' W 145°07'0 0.0 1012.2 6.2
2015-Feb-22 01:00N 58°06' W 145°07'3 3.0 1011.3 6.2
2015-Feb-22 00:00N 58°08' W 145°03'0 0.0 1011.0 6.1
2015-Feb-21 23:00N 58°08' W 145°03'1 0.3 1011.2 6.1
2015-Feb-21 21:00N 58°08' W 145°02'4 0.9 1012.7 6.1
2015-Feb-21 17:00N 58°11' W 145°01'0 0.0 1013.1 6.1
2015-Feb-21 16:00N 58°11' W 145°01'2 0.8 1012.9 6.1
2015-Feb-21 14:00N 58°12' W 145°04'0 0.1 1012.9 6.0
2015-Feb-21 11:00N 58°12' W 145°05'3 3.0 1013.2 6.0
2015-Feb-21 10:00N 58°11' W 144°59'0 0.0 1013.8 6.0
2015-Feb-21 05:00N 58°11' W 144°59'3 0.9 1016.7 6.0
2015-Feb-21 02:00N 58°13' W 144°56'1 0.5 1018.6 6.0
2015-Feb-21 00:00N 58°14' W 144°57'1 0.9 1020.0 6.0
2015-Feb-20 23:00N 58°13' W 144°55'1 0.7 1020.5 6.0
2015-Feb-20 21:00N 58°13' W 144°53'0 0.0 1022.2 6.0
2015-Feb-20 20:00N 58°13' W 144°53'3 2.6 1022.7 6.0
2015-Feb-20 19:00N 58°13' W 144°48'0 0.0 1022.3 6.0
2015-Feb-20 17:00N 58°13' W 144°48'1 1.3 1022.7 6.0
2015-Feb-20 16:00N 58°14' W 144°50'2 0.5 1023.1 6.0
2015-Feb-20 13:00N 58°15' W 144°50'1 1.1 1022.9 6.0
2015-Feb-20 12:00N 58°15' W 144°47'1 0.2 1023.1 6.0
2015-Feb-20 07:00N 58°16' W 144°48'1 0.2 1023.1 6.0
2015-Feb-20 04:00N 58°16' W 144°47'1 0.6 1022.6 6.0
2015-Feb-20 02:00N 58°16' W 144°45'0 0.0 1021.8 6.0
2015-Feb-20 01:00N 58°16' W 144°45'3 1.3 1021.4 6.0
2015-Feb-19 23:00N 58°19' W 144°44'1 0.6 1021.0 6.0
2015-Feb-19 21:00N 58°20' W 144°45'1 0.4 1020.0 6.0
2015-Feb-19 18:00N 58°20' W 144°47'0 0.0 1017.7 6.0
2015-Feb-19 17:00N 58°20' W 144°47'0 0.3 1017.1 6.0
2015-Feb-19 16:00N 58°20' W 144°48'1 1.5 1016.6 6.0
2015-Feb-19 15:00N 58°19' W 144°46'2 1.7 1016.1 6.0
2015-Feb-19 14:00N 58°20' W 144°43'1 0.7 1015.5 6.0
2015-Feb-19 13:00N 58°20' W 144°43'3 0.3 1014.8 6.0
2015-Feb-19 04:00N 58°23' W 144°46'0 0.0 1009.1 6.0
2015-Feb-19 03:00N 58°23' W 144°46'1 0.8 1008.2 6.0
2015-Feb-19 02:00N 58°22' W 144°45'   1007.7 6.0

Dump ship's entire track history